Time;durP1;ratioP1;P1;durP2;ratioP2;P2;SDS_P1;SDS_P2;PMS_P1;PMS_P2;Temp;Humidity;BMP_temperature;BMP_pressure;BME280_temperature;BME280_humidity;BME280_pressure;Samples;Min_cycle;Max_cycle;Signal;HPM_P1;HPM_P2
2023/07/30 00:01:07;;;;;;;;;2.00;2.00;;;;;27.06;43.67;101158.25;5098895;27;45385;-73
2023/07/30 00:03:32;;;;;;;;;2.00;1.00;;;;;27.09;43.38;101157.03;5099129;27;45255;-73
2023/07/30 00:05:57;;;;;;;;;4.67;3.33;;;;;27.04;43.56;101162.97;5099026;27;45240;-72
2023/07/30 00:08:23;;;;;;;;;2.00;2.00;;;;;27.13;43.33;101174.28;5097341;27;49478;-72
2023/07/30 00:10:49;;;;;;;;;1.00;1.00;;;;;27.14;43.42;101163.38;5098404;27;45370;-72
2023/07/30 00:13:14;;;;;;;;;2.67;2.33;;;;;27.13;43.49;101164.44;5098800;27;45369;-73
2023/07/30 00:15:40;;;;;;;;;2.00;0.33;;;;;27.14;43.39;101167.94;5098809;27;45399;-72
2023/07/30 00:18:05;;;;;;;;;1.33;1.33;;;;;27.18;43.32;101171.81;5098991;27;46246;-73
2023/07/30 00:20:31;;;;;;;;;4.00;4.00;;;;;27.17;43.19;101170.16;5098575;27;45495;-72
2023/07/30 00:22:56;;;;;;;;;1.00;1.00;;;;;27.17;42.84;101179.00;5098653;27;45342;-72
2023/07/30 00:25:22;;;;;;;;;2.33;1.00;;;;;27.18;43.24;101175.31;5098384;27;45248;-73
2023/07/30 00:27:47;;;;;;;;;1.00;1.00;;;;;27.19;42.85;101184.16;5098311;27;46212;-72
2023/07/30 00:30:12;;;;;;;;;2.00;1.00;;;;;27.20;43.04;101185.78;5098392;27;45450;-72
2023/07/30 00:32:43;;;;;;;;;2.00;2.00;;;;;27.22;43.28;101182.94;5098671;27;45370;-73
2023/07/30 00:35:08;;;;;;;;;2.00;1.67;;;;;27.23;43.45;101177.38;5098369;27;45516;-72
2023/07/30 00:37:34;;;;;;;;;1.33;1.00;;;;;27.25;42.68;101179.81;5098133;27;47270;-73
2023/07/30 00:39:59;;;;;;;;;1.00;1.00;;;;;27.21;42.82;101175.94;5097980;27;45430;-73
2023/07/30 00:42:24;;;;;;;;;1.33;1.33;;;;;27.25;43.32;101191.31;5098109;27;45531;-73
2023/07/30 00:44:50;;;;;;;;;2.67;2.00;;;;;27.25;43.36;101191.31;5097956;27;53209;-72
2023/07/30 00:47:15;;;;;;;;;1.33;1.00;;;;;27.24;42.86;101184.34;5097918;27;46881;-73
2023/07/30 00:49:40;;;;;;;;;2.00;2.00;;;;;27.27;43.35;101188.47;5097474;27;45375;-72
2023/07/30 00:52:06;;;;;;;;;1.00;1.00;;;;;27.25;42.85;101185.16;5098038;27;45310;-72
2023/07/30 00:54:32;;;;;;;;;2.00;2.00;;;;;27.27;42.76;101188.47;5097737;27;45450;-73
2023/07/30 00:56:57;;;;;;;;;1.00;1.00;;;;;27.30;42.83;101196.03;5097894;27;46278;-73
2023/07/30 00:59:23;;;;;;;;;1.00;1.00;;;;;27.29;43.37;101189.06;5097914;27;45219;-72
2023/07/30 01:01:51;;;;;;;;;3.00;2.00;;;;;27.30;42.68;101190.69;5097993;27;45294;-72
2023/07/30 01:04:17;;;;;;;;;1.33;1.33;;;;;27.31;43.37;101188.84;5098072;27;45465;-72
2023/07/30 01:06:43;;;;;;;;;2.00;2.00;;;;;27.31;42.76;101189.69;5097618;27;47167;-72
2023/07/30 01:09:08;;;;;;;;;1.00;1.00;;;;;27.32;43.33;101198.53;5097653;27;45368;-73
2023/07/30 01:11:36;;;;;;;;;2.00;2.00;;;;;27.33;42.88;101206.31;5097868;27;45261;-73
2023/07/30 01:14:03;;;;;;;;;2.00;1.00;;;;;27.34;43.17;101199.13;5113779;27;45553;-73
2023/07/30 01:16:28;;;;;;;;;1.33;1.33;;;;;27.34;43.00;101207.16;5097581;27;46257;-73
2023/07/30 01:18:53;;;;;;;;;1.00;1.00;;;;;27.33;42.71;101192.13;5096078;27;45372;-73
2023/07/30 01:21:19;;;;;;;;;1.00;1.00;;;;;27.29;43.53;101194.41;5097772;27;45802;-72
2023/07/30 01:23:44;;;;;;;;;4.00;2.33;;;;;27.28;43.05;101198.09;5097336;27;45401;-72
2023/07/30 01:26:22;;;;;;;;;2.00;2.00;;;;;27.34;43.54;101202.63;5097407;27;45393;-73
2023/07/30 01:28:51;;;;;;;;;1.67;1.33;;;;;27.27;43.37;101204.50;5096209;27;45367;-72
2023/07/30 01:31:18;;;;;;;;;3.00;1.00;;;;;27.34;43.41;101209.81;5097465;27;45409;-72
2023/07/30 01:33:48;;;;;;;;;2.00;2.00;;;;;27.33;43.09;101209.00;5097434;27;45401;-72
2023/07/30 01:36:15;;;;;;;;;1.00;1.00;;;;;27.34;42.79;101213.31;5096750;27;46979;-73
2023/07/30 01:38:42;;;;;;;;;2.67;1.00;;;;;27.31;42.61;101219.06;5097482;27;45338;-72
2023/07/30 01:41:08;;;;;;;;;1.67;1.67;;;;;27.35;42.78;101216.81;5097407;27;45389;-73
2023/07/30 01:43:33;;;;;;;;;1.00;1.00;;;;;27.34;43.48;101216.00;5097071;27;45254;-73
2023/07/30 01:45:59;;;;;;;;;1.00;1.00;;;;;27.35;43.45;101211.47;5097012;27;46383;-72
2023/07/30 01:48:24;;;;;;;;;1.00;1.00;;;;;27.35;43.35;101209.59;5097298;27;45303;-72
2023/07/30 01:50:49;;;;;;;;;2.00;2.00;;;;;27.36;42.93;101221.94;5096900;27;45528;-72
2023/07/30 01:53:15;;;;;;;;;2.67;0.33;;;;;27.32;42.80;101209.22;5097091;27;45408;-73
2023/07/30 01:55:43;;;;;;;;;2.00;2.00;;;;;27.36;42.74;101216.59;5097107;27;46670;-72
2023/07/30 01:58:09;;;;;;;;;1.33;1.00;;;;;27.38;43.45;101222.53;5097047;27;45259;-72
2023/07/30 02:00:35;;;;;;;;;1.67;1.67;;;;;27.37;42.85;101226.25;5097066;27;45370;-73
2023/07/30 02:03:00;;;;;;;;;1.33;1.33;;;;;27.39;43.06;101223.38;5095803;27;45420;-72
2023/07/30 02:05:25;;;;;;;;;1.67;1.00;;;;;27.38;42.86;101224.38;5096569;27;47112;-72
2023/07/30 02:07:51;;;;;;;;;1.00;1.00;;;;;27.39;42.80;101223.38;5096816;27;45361;-73
2023/07/30 02:10:16;;;;;;;;;2.33;1.00;;;;;27.38;43.51;101221.72;5097103;27;45406;-73
2023/07/30 02:12:41;;;;;;;;;1.00;1.00;;;;;27.41;42.81;101223.97;5097025;27;45355;-73
2023/07/30 02:15:07;;;;;;;;;0.00;0.00;;;;;27.41;42.86;101232.00;5096691;27;46175;-72
2023/07/30 02:17:32;;;;;;;;;2.00;2.00;;;;;27.38;43.49;101225.22;5096600;27;45407;-72
2023/07/30 02:19:57;;;;;;;;;2.00;1.00;;;;;27.41;43.49;101229.31;5096624;27;45314;-72
2023/07/30 02:22:23;;;;;;;;;1.00;1.00;;;;;27.39;42.77;101224.19;5096677;27;45424;-72
2023/07/30 02:24:48;;;;;;;;;1.00;1.00;;;;;27.38;43.29;101217.19;5096632;27;45815;-72
2023/07/30 02:27:13;;;;;;;;;1.00;1.00;;;;;27.39;43.28;101226.03;5096580;27;45415;-73
2023/07/30 02:29:39;;;;;;;;;1.33;1.33;;;;;27.37;43.46;101222.75;5096751;27;45517;-72
2023/07/30 02:32:05;;;;;;;;;1.00;1.00;;;;;27.39;42.79;101221.53;5096607;27;45446;-73
2023/07/30 02:34:30;;;;;;;;;2.00;2.00;;;;;27.35;42.94;101211.47;5096257;27;45617;-73
2023/07/30 02:36:55;;;;;;;;;3.00;2.00;;;;;27.40;43.15;101223.16;5096538;27;45384;-73
2023/07/30 02:39:21;;;;;;;;;0.33;0.33;;;;;27.37;43.53;101214.75;5095547;27;45394;-73
2023/07/30 02:41:46;;;;;;;;;1.00;1.00;;;;;27.38;43.00;101208.34;5096622;27;45363;-72
2023/07/30 02:44:11;;;;;;;;;2.33;1.00;;;;;27.40;43.33;101220.47;5096113;27;46081;-73
2023/07/30 02:46:37;;;;;;;;;1.00;1.00;;;;;27.39;43.08;101221.53;5096305;27;45303;-72
2023/07/30 02:49:02;;;;;;;;;1.33;1.33;;;;;27.38;42.74;101224.38;5094841;27;45296;-72
2023/07/30 02:51:27;;;;;;;;;1.00;1.00;;;;;27.37;42.86;101220.91;5096383;27;45325;-72
2023/07/30 02:53:59;;;;;;;;;1.00;1.00;;;;;27.40;42.74;101219.69;5096378;27;46211;-73
2023/07/30 02:56:24;;;;;;;;;2.00;0.33;;;;;27.41;42.69;101218.63;5096166;27;45292;-73
2023/07/30 02:58:50;;;;;;;;;0.00;0.00;;;;;27.42;42.88;101222.13;5096272;27;45387;-73
2023/07/30 03:01:15;;;;;;;;;1.00;1.00;;;;;27.40;43.27;101217.00;5096325;27;45330;-73
2023/07/30 03:03:40;;;;;;;;;2.00;2.00;;;;;27.43;43.38;101216.56;5095637;27;45987;-73
2023/07/30 03:06:06;;;;;;;;;3.00;2.00;;;;;27.42;43.37;101214.13;5096242;27;45319;-73
2023/07/30 03:08:31;;;;;;;;;1.00;1.00;;;;;27.43;42.85;101226.47;5096386;27;45316;-73
2023/07/30 03:10:59;;;;;;;;;1.00;1.00;;;;;27.43;42.58;101234.47;5096097;27;45311;-72
2023/07/30 03:13:26;;;;;;;;;1.00;1.00;;;;;27.42;43.29;101222.13;5097370;27;45482;-72
2023/07/30 03:15:53;;;;;;;;;1.00;1.00;;;;;27.44;43.44;101228.09;5099679;27;45477;-72
2023/07/30 03:18:19;;;;;;;;;1.00;1.00;;;;;27.44;43.50;101234.25;5099097;27;45323;-72
2023/07/30 03:20:44;;;;;;;;;2.00;1.00;;;;;27.43;43.22;101232.59;5099674;27;45420;-73
2023/07/30 03:23:09;;;;;;;;;1.00;1.00;;;;;27.43;42.85;101235.28;5099483;27;46012;-72
2023/07/30 03:25:34;;;;;;;;;1.00;1.00;;;;;27.43;43.44;101237.16;5099509;27;45292;-73
2023/07/30 03:28:00;;;;;;;;;1.00;1.00;;;;;27.38;43.55;101235.91;5099721;27;45272;-73
2023/07/30 03:30:25;;;;;;;;;2.00;2.00;;;;;27.42;42.77;101248.84;5099663;27;45485;-72
2023/07/30 03:32:50;;;;;;;;;1.00;1.00;;;;;27.41;43.56;101250.69;5098838;27;45957;-73
2023/07/30 03:35:16;;;;;;;;;4.00;2.00;;;;;27.41;42.83;101240.00;5099449;27;45336;-72
2023/07/30 03:37:41;;;;;;;;;0.00;0.00;;;;;27.40;43.21;101241.06;5099509;27;45657;-72
2023/07/30 03:40:07;;;;;;;;;1.00;1.00;;;;;27.40;42.81;101246.41;5099505;27;45364;-73
2023/07/30 03:42:32;;;;;;;;;0.33;0.33;;;;;27.40;42.85;101249.06;5099154;27;45397;-72
2023/07/30 03:44:58;;;;;;;;;0.33;0.33;;;;;27.39;42.89;101245.56;5098736;27;46706;-72
2023/07/30 03:47:23;;;;;;;;;1.33;1.00;;;;;27.40;43.52;101247.19;5099188;27;45361;-73
2023/07/30 03:49:48;;;;;;;;;1.00;1.00;;;;;27.38;43.06;101240.41;5099243;27;45440;-73
2023/07/30 03:52:14;;;;;;;;;1.00;1.00;;;;;27.41;42.92;101248.03;5098758;27;46142;-72
2023/07/30 03:54:39;;;;;;;;;2.00;1.00;;;;;27.39;43.13;101250.91;5099188;27;45346;-72
2023/07/30 03:57:04;;;;;;;;;1.00;1.00;;;;;27.43;43.48;101248.63;5099009;27;45351;-72
2023/07/30 03:59:30;;;;;;;;;3.33;2.00;;;;;27.43;42.97;101253.19;5099128;27;45350;-72
2023/07/30 04:01:55;;;;;;;;;0.67;0.67;;;;;27.43;42.89;101261.19;5098564;27;46044;-73
2023/07/30 04:04:20;;;;;;;;;1.00;1.00;;;;;27.44;43.43;101263.66;5098772;27;45483;-72
2023/07/30 04:06:46;;;;;;;;;1.00;1.00;;;;;27.40;42.89;101265.09;5099021;27;45343;-72
2023/07/30 04:09:11;;;;;;;;;0.00;0.00;;;;;27.45;42.85;101278.66;5098859;27;45497;-73
2023/07/30 04:11:36;;;;;;;;;1.67;1.67;;;;;27.44;43.58;101278.84;5098681;27;46153;-72
2023/07/30 04:14:04;;;;;;;;;2.00;1.00;;;;;27.45;43.11;101276.00;5098609;27;49718;-72
2023/07/30 04:16:30;;;;;;;;;1.00;1.00;;;;;27.39;43.11;101264.28;5098585;27;45376;-72
2023/07/30 04:18:55;;;;;;;;;1.00;1.00;;;;;27.45;43.56;101280.50;5098545;27;45548;-73
2023/07/30 04:21:21;;;;;;;;;1.00;1.00;;;;;27.43;42.83;101280.69;5098473;27;46204;-72
2023/07/30 04:23:46;;;;;;;;;1.00;1.00;;;;;27.45;42.91;101291.19;5098770;27;45285;-72
2023/07/30 04:26:11;;;;;;;;;1.00;1.00;;;;;27.42;42.82;101284.41;5097740;27;45333;-72
2023/07/30 04:28:37;;;;;;;;;1.00;1.00;;;;;27.43;42.95;101288.72;5098704;27;45306;-72
2023/07/30 04:31:02;;;;;;;;;0.00;0.00;;;;;27.43;42.97;101294.06;5097996;27;46466;-73
2023/07/30 04:33:28;;;;;;;;;1.67;1.00;;;;;27.44;43.49;101294.88;5098367;27;45318;-72
2023/07/30 04:35:54;;;;;;;;;1.00;1.00;;;;;27.40;43.68;101289.94;5098500;27;45321;-72
2023/07/30 04:38:19;;;;;;;;;2.00;2.00;;;;;27.43;42.88;101287.91;5098341;27;45343;-73
2023/07/30 04:40:44;;;;;;;;;0.33;0.33;;;;;27.44;43.43;101302.91;5098311;27;45412;-72
2023/07/30 04:43:09;;;;;;;;;1.00;1.00;;;;;27.43;43.40;101301.28;5098011;27;45393;-72
2023/07/30 04:45:35;;;;;;;;;0.00;0.00;;;;;27.39;42.83;101288.31;5097658;27;45525;-73
2023/07/30 04:48:00;;;;;;;;;1.00;1.00;;;;;27.40;42.83;101289.16;5097142;27;45478;-73
2023/07/30 04:50:26;;;;;;;;;2.00;2.00;;;;;27.42;43.31;101300.44;5096827;27;46888;-72
2023/07/30 04:52:51;;;;;;;;;1.00;0.00;;;;;27.43;43.45;101295.94;5097940;27;45460;-73
2023/07/30 04:55:17;;;;;;;;;1.33;0.33;;;;;27.40;43.01;101291.81;5098295;27;45298;-72
2023/07/30 04:57:42;;;;;;;;;1.00;1.00;;;;;27.43;43.07;101307.41;5098160;27;45444;-72
2023/07/30 05:00:08;;;;;;;;;1.00;1.00;;;;;27.43;43.08;101293.25;5097510;27;46001;-72
2023/07/30 05:02:33;;;;;;;;;2.00;2.00;;;;;27.45;42.68;101294.69;5097995;27;45426;-72
2023/07/30 05:04:58;;;;;;;;;0.33;0.00;;;;;27.44;43.43;101292.22;5098120;27;45359;-73
2023/07/30 05:07:24;;;;;;;;;0.67;0.67;;;;;27.45;43.56;101292.03;5097932;27;45406;-72
2023/07/30 05:09:49;;;;;;;;;1.00;1.00;;;;;27.47;43.58;101299.81;5097826;27;46093;-73
2023/07/30 05:12:14;;;;;;;;;0.00;0.00;;;;;27.43;43.35;101286.03;5097480;27;51274;-72
2023/07/30 05:14:40;;;;;;;;;1.00;1.00;;;;;27.47;42.88;101295.31;5097611;27;45331;-73
2023/07/30 05:17:05;;;;;;;;;1.00;0.00;;;;;27.44;43.00;101297.56;5097882;27;45475;-73
2023/07/30 05:19:31;;;;;;;;;1.00;1.00;;;;;27.49;43.01;101303.09;5097462;27;45374;-73
2023/07/30 05:21:57;;;;;;;;;1.00;1.00;;;;;27.45;43.36;101302.72;5097604;27;45624;-73
2023/07/30 05:24:22;;;;;;;;;1.67;1.67;;;;;27.46;43.62;101299.00;5097609;27;45920;-72
2023/07/30 05:26:47;;;;;;;;;1.00;1.00;;;;;27.48;43.40;101309.50;5097447;27;45437;-72
2023/07/30 05:29:13;;;;;;;;;0.33;0.33;;;;;27.47;43.62;101308.66;5097146;27;46077;-73
2023/07/30 05:31:38;;;;;;;;;2.00;2.00;;;;;27.48;43.34;101304.94;5097562;27;45282;-73
2023/07/30 05:34:03;;;;;;;;;3.00;1.00;;;;;27.48;43.51;101307.63;5097686;27;45369;-73
2023/07/30 05:36:30;;;;;;;;;2.00;0.00;;;;;27.48;42.86;101317.50;5097457;27;45288;-73
2023/07/30 05:38:55;;;;;;;;;2.67;1.33;;;;;27.49;43.45;101319.97;5097363;27;45445;-73
2023/07/30 05:41:21;;;;;;;;;2.00;2.00;;;;;27.49;43.18;101311.13;5097091;27;45413;-73
2023/07/30 05:43:47;;;;;;;;;1.00;1.00;;;;;27.50;43.42;101310.09;5097055;27;45304;-73
2023/07/30 05:46:12;;;;;;;;;1.00;1.00;;;;;27.50;43.38;101321.63;5097127;27;45484;-73
2023/07/30 05:48:38;;;;;;;;;0.00;0.00;;;;;27.51;43.14;101319.75;5097041;27;46087;-72
2023/07/30 05:51:03;;;;;;;;;0.00;0.00;;;;;27.47;43.48;101324.69;5097170;27;45411;-73
2023/07/30 05:53:29;;;;;;;;;0.00;0.00;;;;;27.50;42.95;101329.63;5097270;27;45420;-72
2023/07/30 05:55:54;;;;;;;;;1.00;1.00;;;;;27.50;43.35;101326.13;5097340;27;45339;-72
2023/07/30 05:58:19;;;;;;;;;2.33;1.00;;;;;27.49;43.50;101329.81;5096839;27;45383;-73
2023/07/30 06:00:45;;;;;;;;;1.00;1.00;;;;;27.49;43.11;101327.16;5096952;27;47400;-72
2023/07/30 06:03:11;;;;;;;;;0.67;0.33;;;;;27.49;42.99;101329.81;5097113;27;45301;-73
2023/07/30 06:05:40;;;;;;;;;1.33;1.00;;;;;27.50;43.00;101326.97;5112916;27;45446;-72
2023/07/30 06:08:06;;;;;;;;;1.33;1.00;;;;;27.52;43.45;101343.59;5096813;27;46245;-73
2023/07/30 06:10:37;;;;;;;;;1.00;1.00;;;;;27.48;42.99;101331.66;5097082;27;45472;-72
2023/07/30 06:13:03;;;;;;;;;1.00;1.00;;;;;27.52;43.44;101330.25;5096558;27;45289;-72
2023/07/30 06:15:29;;;;;;;;;0.33;0.33;;;;;27.54;43.53;101332.69;5096902;27;45452;-73
2023/07/30 06:17:54;;;;;;;;;0.67;0.67;;;;;27.54;43.39;101330.03;5096396;27;45438;-73
2023/07/30 06:20:20;;;;;;;;;3.00;2.00;;;;;27.55;42.83;101333.53;5096727;27;45343;-73
2023/07/30 06:22:45;;;;;;;;;0.33;0.33;;;;;27.56;42.87;101332.50;5096817;27;45509;-73
2023/07/30 06:25:10;;;;;;;;;2.33;1.00;;;;;27.54;43.40;101340.72;5096814;27;45350;-73
2023/07/30 06:27:36;;;;;;;;;1.00;1.00;;;;;27.54;43.08;101335.38;5096175;27;46914;-73
2023/07/30 06:30:01;;;;;;;;;0.00;0.00;;;;;27.59;42.84;101342.75;5096795;27;45366;-72
2023/07/30 06:32:26;;;;;;;;;0.00;0.00;;;;;27.60;42.76;101341.75;5096649;27;45286;-73
2023/07/30 06:34:52;;;;;;;;;0.33;0.33;;;;;27.60;43.44;101337.22;5096732;27;45436;-72
2023/07/30 06:37:17;;;;;;;;;3.67;1.00;;;;;27.61;43.06;101352.22;5096381;27;47595;-73
2023/07/30 06:39:42;;;;;;;;;0.00;0.00;;;;;27.62;43.33;101345.88;5096417;27;45315;-73
2023/07/30 06:42:08;;;;;;;;;0.00;0.00;;;;;27.65;43.23;101349.97;5094878;27;45441;-73
2023/07/30 06:44:34;;;;;;;;;0.33;0.33;;;;;27.65;43.52;101355.31;5096641;27;45329;-73
2023/07/30 06:46:59;;;;;;;;;1.00;1.00;;;;;27.65;42.98;101351.81;5096350;27;45431;-72
2023/07/30 06:49:25;;;;;;;;;0.00;0.00;;;;;27.61;42.68;101343.41;5102716;27;45339;-72
2023/07/30 06:51:50;;;;;;;;;1.67;0.00;;;;;27.64;43.03;101356.34;5103257;27;45350;-72
2023/07/30 06:54:15;;;;;;;;;0.00;0.00;;;;;27.66;42.82;101354.31;5103377;27;45505;-73
2023/07/30 06:56:41;;;;;;;;;1.00;1.00;;;;;27.63;43.16;101350.19;5102569;27;46177;-73
2023/07/30 06:59:06;;;;;;;;;1.00;1.00;;;;;27.65;42.83;101358.00;5102950;27;45347;-72
2023/07/30 07:01:31;;;;;;;;;1.00;1.00;;;;;27.68;42.89;101357.59;5103158;27;45376;-73
2023/07/30 07:03:57;;;;;;;;;0.00;0.00;;;;;27.69;42.86;101361.88;5101914;27;45504;-72
2023/07/30 07:06:22;;;;;;;;;2.00;2.00;;;;;27.71;43.19;101369.72;5102907;27;46016;-72
2023/07/30 07:08:47;;;;;;;;;1.00;1.00;;;;;27.73;42.69;101376.50;5102854;27;45376;-72
2023/07/30 07:11:13;;;;;;;;;1.00;1.00;;;;;27.68;43.21;101370.13;5102706;27;45314;-72
2023/07/30 07:13:38;;;;;;;;;1.00;1.00;;;;;27.77;43.23;101376.06;5103027;27;45296;-73
2023/07/30 07:16:03;;;;;;;;;0.00;0.00;;;;;27.77;43.17;101384.91;5102517;27;54911;-72
2023/07/30 07:18:29;;;;;;;;;0.00;0.00;;;;;27.80;42.44;101386.38;5101628;27;45339;-72
2023/07/30 07:20:54;;;;;;;;;1.67;1.00;;;;;27.79;42.61;101377.50;5102907;27;45328;-73
2023/07/30 07:23:19;;;;;;;;;0.00;0.00;;;;;27.82;42.44;101378.97;5102969;27;45370;-73
2023/07/30 07:25:45;;;;;;;;;1.67;0.67;;;;;27.82;42.87;101382.47;5102397;27;46027;-73
2023/07/30 07:28:10;;;;;;;;;1.00;1.00;;;;;27.87;42.85;101391.75;5102695;27;45412;-73
2023/07/30 07:30:39;;;;;;;;;1.00;1.00;;;;;27.86;42.76;101396.25;5102922;27;45358;-72
2023/07/30 07:33:05;;;;;;;;;0.00;0.00;;;;;27.87;43.25;101399.75;5118665;27;45509;-72
2023/07/30 07:35:31;;;;;;;;;1.00;1.00;;;;;27.88;42.42;101409.41;5102466;27;46494;-73
2023/07/30 07:37:57;;;;;;;;;1.67;0.00;;;;;27.85;43.14;101391.94;5102586;27;45418;-74
2023/07/30 07:40:22;;;;;;;;;3.00;0.00;;;;;27.88;42.49;101407.56;5102346;27;45407;-74
2023/07/30 07:42:47;;;;;;;;;0.00;0.00;;;;;27.88;42.68;101412.91;5102579;27;45397;-74
2023/07/30 07:45:13;;;;;;;;;0.00;0.00;;;;;27.92;43.11;101411.44;5102458;27;45515;-73
2023/07/30 07:47:38;;;;;;;;;0.33;0.33;;;;;27.94;43.27;101411.25;5102566;27;45390;-73
2023/07/30 07:50:04;;;;;;;;;1.00;1.00;;;;;28.00;43.18;101404.28;5102695;27;45383;-73
2023/07/30 07:52:30;;;;;;;;;0.67;0.00;;;;;28.01;43.12;101413.91;5102538;27;45429;-73
2023/07/30 07:54:55;;;;;;;;;0.00;0.00;;;;;28.04;43.06;101417.03;5101867;27;46929;-72
2023/07/30 07:57:20;;;;;;;;;1.00;1.00;;;;;28.03;43.38;101414.53;5101144;27;45404;-72
2023/07/30 07:59:46;;;;;;;;;1.67;1.00;;;;;28.04;43.11;101414.34;5100775;27;45301;-72
2023/07/30 08:02:12;;;;;;;;;1.00;1.00;;;;;28.05;42.61;101429.34;5098858;27;45536;-71
2023/07/30 08:04:38;;;;;;;;;0.67;0.67;;;;;28.05;42.47;101424.00;5098732;27;46991;-72
2023/07/30 08:07:03;;;;;;;;;1.33;1.33;;;;;28.07;42.86;101437.19;5098839;27;45233;-72
2023/07/30 08:09:29;;;;;;;;;2.67;1.00;;;;;28.07;42.79;101431.81;5098482;27;45429;-73
2023/07/30 08:11:55;;;;;;;;;2.00;1.00;;;;;28.09;43.15;101421.75;5098537;27;45314;-73
2023/07/30 08:14:20;;;;;;;;;0.67;0.67;;;;;28.14;42.63;101416.59;5098086;27;46243;-72
2023/07/30 08:16:46;;;;;;;;;1.67;1.00;;;;;28.18;42.46;101414.31;5102728;27;45470;-73
2023/07/30 08:19:11;;;;;;;;;0.00;0.00;;;;;28.20;42.69;101414.94;5098251;27;45506;-73
2023/07/30 08:21:37;;;;;;;;;1.00;1.00;;;;;28.24;42.98;101421.50;5099157;27;45395;-72
2023/07/30 08:24:02;;;;;;;;;1.33;1.00;;;;;28.26;43.08;101422.09;5099329;27;46280;-73
2023/07/30 08:26:27;;;;;;;;;0.00;0.00;;;;;28.31;42.50;101428.69;5098644;27;45333;-72
2023/07/30 08:28:53;;;;;;;;;0.00;0.00;;;;;28.33;42.32;101426.63;5098630;27;45351;-71
2023/07/30 08:31:18;;;;;;;;;1.00;1.00;;;;;28.36;42.46;101416.34;5098471;27;45396;-71
2023/07/30 08:33:43;;;;;;;;;1.00;1.00;;;;;28.43;42.94;101421.66;5098181;27;46000;-73
2023/07/30 08:36:09;;;;;;;;;0.00;0.00;;;;;28.48;42.63;101415.72;5098232;27;45442;-72
2023/07/30 08:38:34;;;;;;;;;1.33;0.33;;;;;28.49;42.98;101417.38;5098183;27;45300;-73
2023/07/30 08:40:59;;;;;;;;;1.33;0.00;;;;;28.49;42.46;101412.00;5098260;27;45351;-74
2023/07/30 08:43:25;;;;;;;;;1.00;1.00;;;;;28.47;41.73;101403.38;5098166;27;45311;-74
2023/07/30 08:45:50;;;;;;;;;4.33;1.00;;;;;28.48;40.19;101416.53;5098005;27;45329;-74
2023/07/30 08:48:16;;;;;;;;;1.00;1.00;;;;;28.36;39.82;101415.53;5098353;27;45395;-74
2023/07/30 08:50:42;;;;;;;;;2.00;2.00;;;;;28.32;38.89;101416.94;5098407;27;45368;-74
2023/07/30 08:53:07;;;;;;;;;4.33;2.00;;;;;28.21;38.56;101421.13;5097461;27;45398;-75
2023/07/30 08:55:34;;;;;;;;;1.67;1.67;;;;;28.10;39.00;101431.41;5098017;27;45425;-75
2023/07/30 08:58:04;;;;;;;;;2.00;2.00;;;;;28.02;39.20;101431.63;5098149;27;45361;-74
2023/07/30 09:00:36;;;;;;;;;3.00;2.00;;;;;27.92;38.64;101426.69;5098158;27;45521;-74
2023/07/30 09:03:03;;;;;;;;;1.67;1.67;;;;;27.84;38.82;101427.72;5097698;27;46407;-74
2023/07/30 09:05:29;;;;;;;;;2.33;2.00;;;;;27.74;38.16;101418.22;5097819;27;45472;-74
2023/07/30 09:07:55;;;;;;;;;3.33;2.67;;;;;27.68;38.47;101427.09;5097627;27;45315;-74
2023/07/30 09:10:21;;;;;;;;;4.00;2.33;;;;;27.60;38.35;101425.44;5097455;27;45437;-73
2023/07/30 09:12:53;;;;;;;;;5.67;4.33;;;;;27.57;38.15;101428.50;5097451;27;45338;-72
2023/07/30 09:15:19;;;;;;;;;1.33;1.00;;;;;27.56;38.46;101426.84;5097789;27;46025;-73
2023/07/30 09:17:45;;;;;;;;;2.67;2.00;;;;;27.56;38.53;101434.88;5097673;27;45400;-71
2023/07/30 09:20:11;;;;;;;;;1.33;1.33;;;;;27.58;38.42;101427.50;5097713;27;45383;-71
2023/07/30 09:22:40;;;;;;;;;8.33;3.00;;;;;27.59;38.15;101426.44;5097638;27;45386;-71
2023/07/30 09:25:06;;;;;;;;;2.00;2.00;;;;;27.58;38.36;101426.66;5097637;27;45259;-70
2023/07/30 09:27:32;;;;;;;;;3.33;2.00;;;;;27.62;37.56;101434.06;5097555;27;45377;-71
2023/07/30 09:30:00;;;;;;;;;4.33;2.00;;;;;27.65;37.92;101440.84;5097736;27;45302;-71
2023/07/30 09:32:31;;;;;;;;;4.00;2.00;;;;;27.65;38.08;101443.53;5097478;27;46446;-71
2023/07/30 09:35:08;;;;;;;;;6.33;2.00;;;;;27.61;37.91;101445.78;5095629;27;45427;-71
2023/07/30 09:37:43;;;;;;;;;4.00;1.67;;;;;27.60;37.61;101449.50;5097388;27;45355;-70
2023/07/30 09:40:10;;;;;;;;;5.67;4.33;;;;;27.60;37.86;101443.31;5097384;27;45350;-69
2023/07/30 09:42:39;;;;;;;;;5.67;1.67;;;;;27.64;37.77;101447.22;5097111;27;45389;-70
2023/07/30 09:45:08;;;;;;;;;3.33;3.00;;;;;27.66;37.71;101441.69;5096955;27;45275;-72
2023/07/30 09:47:37;;;;;;;;;3.00;3.00;;;;;27.69;37.38;101444.75;5097334;27;45279;-72
2023/07/30 09:50:02;;;;;;;;;4.00;2.00;;;;;27.74;37.87;101439.59;5096888;27;45351;-72
2023/07/30 09:52:29;;;;;;;;;3.33;1.33;;;;;27.80;37.54;101445.19;5096691;27;46342;-72
2023/07/30 09:54:57;;;;;;;;;4.00;3.00;;;;;27.81;37.85;101441.50;5097016;27;45470;-72
2023/07/30 09:57:23;;;;;;;;;2.00;2.00;;;;;27.86;36.74;101441.72;5095836;27;45418;-72
2023/07/30 09:59:48;;;;;;;;;3.00;2.33;;;;;27.89;37.87;101440.47;5096928;27;45279;-71
2023/07/30 10:02:13;;;;;;;;;4.00;2.00;;;;;27.92;37.90;101446.22;5096879;27;47202;-71
2023/07/30 10:04:43;;;;;;;;;6.67;1.00;;;;;27.94;37.06;101446.03;5096613;27;45330;-71
2023/07/30 10:07:23;;;;;;;;;5.00;3.00;;;;;27.91;38.01;101443.75;5097088;27;45251;-71
2023/07/30 10:09:53;;;;;;;;;2.33;2.00;;;;;27.93;37.20;101450.56;5096924;27;45410;-71
2023/07/30 10:12:24;;;;;;;;;2.33;1.33;;;;;27.89;36.15;101457.34;5096650;27;46348;-72
2023/07/30 10:14:50;;;;;;;;;3.00;2.00;;;;;27.87;36.96;101458.59;5096688;27;45350;-70
2023/07/30 10:17:17;;;;;;;;;1.00;1.00;;;;;27.84;36.60;101451.78;5096744;27;45312;-69
2023/07/30 10:19:47;;;;;;;;;5.00;1.00;;;;;27.87;37.01;101454.03;5096580;27;45409;-73
2023/07/30 10:22:12;;;;;;;;;2.00;2.00;;;;;27.92;36.86;101456.91;5095721;27;45281;-74
2023/07/30 10:24:38;;;;;;;;;2.00;1.00;;;;;27.95;37.32;101440.47;5096262;27;45444;-74
2023/07/30 10:27:09;;;;;;;;;2.00;2.00;;;;;28.01;37.17;101432.66;5095481;27;45337;-72
2023/07/30 10:29:39;;;;;;;;;2.67;2.00;;;;;28.01;37.75;101432.66;5096607;27;45279;-72
2023/07/30 10:32:05;;;;;;;;;3.00;2.67;;;;;28.06;36.65;101435.53;5096288;27;45769;-70
2023/07/30 10:34:47;;;;;;;;;5.33;3.67;;;;;28.06;37.52;101441.69;5096119;27;45419;-69
2023/07/30 10:37:20;;;;;;;;;3.67;2.00;;;;;28.15;37.03;101453.00;5096564;27;45331;-69
2023/07/30 10:39:48;;;;;;;;;2.00;2.00;;;;;28.18;36.81;101447.22;5096609;27;45372;-70
2023/07/30 10:42:14;;;;;;;;;3.67;3.00;;;;;28.22;36.72;101449.50;5096104;27;47467;-71
2023/07/30 10:44:44;;;;;;;;;1.67;1.67;;;;;28.19;36.61;101437.34;5096129;27;45420;-71
2023/07/30 10:47:10;;;;;;;;;4.33;2.00;;;;;28.14;36.05;101447.84;5096142;27;45357;-70
2023/07/30 10:49:50;;;;;;;;;2.67;1.67;;;;;28.21;36.21;101451.34;5095951;27;45213;-70
2023/07/30 10:52:16;;;;;;;;;2.33;2.33;;;;;28.21;36.32;101439.84;5095840;27;46118;-71
2023/07/30 10:54:41;;;;;;;;;1.00;1.00;;;;;28.23;36.37;101445.81;5096272;27;45492;-72
2023/07/30 10:57:06;;;;;;;;;2.00;2.00;;;;;28.25;36.09;101446.41;5096374;27;45719;-71
2023/07/30 10:59:36;;;;;;;;;3.33;3.00;;;;;28.26;36.26;101456.09;5096308;27;45545;-71
2023/07/30 11:02:03;;;;;;;;;2.67;2.67;;;;;28.27;36.65;101455.88;5095661;27;47090;-73
2023/07/30 11:04:28;;;;;;;;;2.00;2.00;;;;;28.30;36.26;101449.28;5095995;27;45395;-70
2023/07/30 11:06:53;;;;;;;;;4.00;3.00;;;;;28.29;36.50;101448.44;5096062;27;45282;-74
2023/07/30 11:09:20;;;;;;;;;2.00;2.00;;;;;28.29;35.89;101451.13;5096412;27;45374;-72
2023/07/30 11:11:46;;;;;;;;;3.00;2.00;;;;;28.27;36.04;101452.38;5095609;27;46929;-74
2023/07/30 11:14:16;;;;;;;;;4.33;2.00;;;;;28.26;36.22;101456.09;5095647;27;45488;-75
2023/07/30 11:16:59;;;;;;;;;1.33;1.33;;;;;28.23;35.74;101448.47;5095538;27;45414;-71
2023/07/30 11:19:26;;;;;;;;;3.33;2.00;;;;;28.22;35.51;101442.28;5095929;27;45476;-71